Time;durP1;ratioP1;P1;durP2;ratioP2;P2;SDS_P1;SDS_P2;PMS_P1;PMS_P2;Temp;Humidity;BMP_temperature;BMP_pressure;BME280_temperature;BME280_humidity;BME280_pressure;Samples;Min_cycle;Max_cycle;Signal;HPM_P1;HPM_P2
2023/09/23 00:00:23;;;;;;;36.45;33.75;;;19.80;99.90;;;;;;5070061;28;20114;-60
2023/09/23 00:02:49;;;;;;;37.10;34.30;;;19.20;99.90;;;;;;5070085;28;20045;-63
2023/09/23 00:05:16;;;;;;;37.22;34.38;;;19.50;99.90;;;;;;5070122;28;20051;-63
2023/09/23 00:07:42;;;;;;;37.05;34.35;;;19.20;99.90;;;;;;5070357;28;20097;-62
2023/09/23 00:10:09;;;;;;;35.75;33.08;;;19.70;99.90;;;;;;5069590;28;20040;-61
2023/09/23 00:12:36;;;;;;;36.05;33.45;;;19.60;99.90;;;;;;5069972;28;20048;-61
2023/09/23 00:15:05;;;;;;;34.75;32.25;;;19.80;99.90;;;;;;5069592;28;20036;-61
2023/09/23 00:17:31;;;;;;;36.45;33.80;;;19.50;99.90;;;;;;5069326;28;20036;-61
2023/09/23 00:19:56;;;;;;;35.88;33.28;;;19.30;99.90;;;;;;5068639;28;20450;-61
2023/09/23 00:22:22;;;;;;;36.38;33.78;;;19.10;99.90;;;;;;5070001;28;20042;-61
2023/09/23 00:24:48;;;;;;;36.42;33.63;;;19.10;99.90;;;;;;5069793;28;20123;-61
2023/09/23 00:27:13;;;;;;;37.53;34.72;;;18.50;99.90;;;;;;5069678;28;20113;-62
2023/09/23 00:29:39;;;;;;;37.80;34.97;;;19.40;99.90;;;;;;5068492;28;20040;-60
2023/09/23 00:32:05;;;;;;;37.40;34.60;;;18.40;99.90;;;;;;5069795;28;20402;-63
2023/09/23 00:34:30;;;;;;;38.05;35.25;;;18.40;99.90;;;;;;5068503;28;20078;-62
2023/09/23 00:36:56;;;;;;;38.63;35.53;;;18.40;99.90;;;;;;5069785;28;20086;-61
2023/09/23 00:39:21;;;;;;;37.90;35.05;;;18.30;99.90;;;;;;5069651;28;20041;-61
2023/09/23 00:41:47;;;;;;;38.47;35.60;;;19.20;99.90;;;;;;5069374;28;20072;-61
2023/09/23 00:44:13;;;;;;;36.55;33.72;;;18.70;99.90;;;;;;5069470;28;20052;-61
2023/09/23 00:46:41;;;;;;;38.00;35.20;;;18.30;99.90;;;;;;5069073;28;20449;-63
2023/09/23 00:49:07;;;;;;;39.55;36.55;;;18.30;99.90;;;;;;5069088;28;20064;-61
2023/09/23 00:51:33;;;;;;;39.03;35.63;;;18.90;99.90;;;;;;5069592;28;20051;-61
2023/09/23 00:54:01;;;;;;;39.80;36.70;;;18.90;99.90;;;;;;5069079;28;20444;-61
2023/09/23 00:56:28;;;;;;;39.78;36.78;;;18.90;99.90;;;;;;5069050;28;20362;-64
2023/09/23 00:58:54;;;;;;;41.22;37.53;;;18.10;99.90;;;;;;5069166;28;20066;-65
2023/09/23 01:01:21;;;;;;;42.50;38.92;;;18.20;99.90;;;;;;5067334;28;20124;-64
2023/09/23 01:03:47;;;;;;;43.00;39.67;;;18.30;99.90;;;;;;5069232;28;20561;-64
2023/09/23 01:06:21;;;;;;;40.88;37.55;;;18.00;99.90;;;;;;5069083;28;20060;-65
2023/09/23 01:08:50;;;;;;;40.95;37.97;;;18.00;99.90;;;;;;5068853;28;20048;-64
2023/09/23 01:11:17;;;;;;;40.70;37.50;;;18.80;99.90;;;;;;5049973;28;20502;-64
2023/09/23 01:13:45;;;;;;;42.45;38.95;;;18.60;99.90;;;;;;5048622;28;20131;-64
2023/09/23 01:16:15;;;;;;;43.17;39.75;;;17.90;99.90;;;;;;5048710;28;20044;-64
2023/09/23 01:18:45;;;;;;;42.20;38.90;;;18.70;99.90;;;;;;5049477;28;20091;-65
2023/09/23 01:21:12;;;;;;;42.45;39.17;;;18.80;99.90;;;;;;5049544;28;20079;-65
2023/09/23 01:23:38;;;;;;;43.67;39.97;;;18.90;99.90;;;;;;5048922;28;20037;-65
2023/09/23 01:26:04;;;;;;;43.20;39.90;;;18.90;99.90;;;;;;5047318;28;20074;-65
2023/09/23 01:28:32;;;;;;;44.17;40.72;;;18.30;99.90;;;;;;5047926;28;20069;-65
2023/09/23 01:30:59;;;;;;;44.45;41.05;;;18.00;99.90;;;;;;5048501;28;20114;-65
2023/09/23 01:33:29;;;;;;;46.85;43.28;;;18.20;99.90;;;;;;5048531;28;20055;-65
2023/09/23 01:35:57;;;;;;;45.97;42.28;;;19.20;99.90;;;;;;5048608;28;20498;-65
2023/09/23 01:38:24;;;;;;;46.55;43.05;;;18.50;99.90;;;;;;5048476;28;20033;-65
2023/09/23 01:40:51;;;;;;;44.88;41.55;;;19.20;99.90;;;;;;5048196;28;20046;-65
2023/09/23 01:43:16;;;;;;;41.95;38.78;;;18.50;99.90;;;;;;5048205;28;20041;-65
2023/09/23 01:45:42;;;;;;;40.25;37.10;;;19.30;99.90;;;;;;5048077;28;20086;-65
2023/09/23 01:48:07;;;;;;;43.38;40.08;;;18.90;99.90;;;;;;5048247;28;20495;-65
2023/09/23 01:50:33;;;;;;;40.47;37.28;;;18.90;99.90;;;;;;5047947;28;20114;-65
2023/09/23 01:53:02;;;;;;;41.22;37.83;;;18.60;99.90;;;;;;5048142;28;20049;-65
2023/09/23 01:55:30;;;;;;;43.10;39.65;;;19.60;99.90;;;;;;5047842;28;20541;-65
2023/09/23 01:57:56;;;;;;;44.53;40.72;;;18.70;99.90;;;;;;5047957;28;20049;-65
2023/09/23 02:00:28;;;;;;;43.50;39.95;;;18.80;99.90;;;;;;5046717;28;20410;-65
2023/09/23 02:02:55;;;;;;;39.22;35.92;;;18.80;99.90;;;;;;5048051;28;20048;-65
2023/09/23 02:05:24;;;;;;;40.80;37.53;;;19.90;99.90;;;;;;5047998;28;20507;-65
2023/09/23 02:07:50;;;;;;;37.28;34.22;;;19.30;99.90;;;;;;5047995;28;20045;-61
2023/09/23 02:10:17;;;;;;;40.13;36.80;;;19.90;99.90;;;;;;5057956;28;20082;-62
2023/09/23 02:12:43;;;;;;;38.05;34.38;;;19.10;99.90;;;;;;5066289;28;20122;-61
2023/09/23 02:15:10;;;;;;;38.60;35.60;;;19.10;99.90;;;;;;5067713;28;20068;-63
2023/09/23 02:17:36;;;;;;;35.45;32.50;;;20.00;99.90;;;;;;5066411;28;20554;-62
2023/09/23 02:20:11;;;;;;;35.70;32.80;;;19.20;99.90;;;;;;5067689;28;20036;-63
2023/09/23 02:22:37;;;;;;;34.20;31.30;;;19.80;99.90;;;;;;5067654;28;20044;-63
2023/09/23 02:25:04;;;;;;;35.25;32.08;;;19.30;99.90;;;;;;5067924;28;20044;-63
2023/09/23 02:27:29;;;;;;;35.75;32.95;;;19.40;99.90;;;;;;5067624;28;20041;-61
2023/09/23 02:29:55;;;;;;;35.58;32.58;;;20.20;99.90;;;;;;5067522;28;20389;-61
2023/09/23 02:32:21;;;;;;;37.20;34.05;;;20.30;99.90;;;;;;5067436;28;20047;-62
2023/09/23 02:34:46;;;;;;;35.85;33.13;;;20.20;99.90;;;;;;5067453;28;20076;-61
2023/09/23 02:37:12;;;;;;;36.28;33.67;;;19.30;99.90;;;;;;5067537;28;20040;-61
2023/09/23 02:39:37;;;;;;;37.40;34.20;;;20.10;99.90;;;;;;5067595;28;20044;-62
2023/09/23 02:42:05;;;;;;;35.63;32.58;;;20.10;99.90;;;;;;5067425;28;20045;-63
2023/09/23 02:44:30;;;;;;;37.83;34.70;;;20.10;99.90;;;;;;5067413;28;20052;-63
2023/09/23 02:46:56;;;;;;;37.15;33.85;;;20.20;99.90;;;;;;5065651;28;20051;-61
2023/09/23 02:49:21;;;;;;;37.78;34.55;;;20.20;99.90;;;;;;5067206;28;20059;-62
2023/09/23 02:51:49;;;;;;;39.60;36.08;;;19.30;99.90;;;;;;5067749;28;20494;-62
2023/09/23 02:54:17;;;;;;;36.72;33.45;;;20.30;99.90;;;;;;5067219;28;20044;-61
2023/09/23 02:56:50;;;;;;;38.17;35.28;;;19.50;99.90;;;;;;5067298;28;20040;-62
2023/09/23 02:59:21;;;;;;;39.22;36.13;;;19.30;99.90;;;;;;5067483;28;20044;-62
2023/09/23 03:01:51;;;;;;;38.65;35.65;;;20.10;99.90;;;;;;5067593;28;20047;-63
2023/09/23 03:04:19;;;;;;;38.00;34.67;;;19.60;99.90;;;;;;5066161;28;20052;-63
2023/09/23 03:06:49;;;;;;;37.65;34.50;;;20.30;99.90;;;;;;5067184;28;20525;-63
2023/09/23 03:09:25;;;;;;;38.35;35.45;;;19.30;99.90;;;;;;5065261;28;20426;-62
2023/09/23 03:11:55;;;;;;;38.28;35.42;;;20.30;99.90;;;;;;5047145;28;20044;-62
2023/09/23 03:14:43;;;;;;;38.55;35.45;;;20.10;99.90;;;;;;5047077;28;20045;-63
2023/09/23 03:17:12;;;;;;;38.42;35.47;;;20.20;99.90;;;;;;5047262;28;20415;-62
2023/09/23 03:19:38;;;;;;;37.25;34.45;;;19.80;99.90;;;;;;5047551;28;20395;-61
2023/09/23 03:22:04;;;;;;;37.17;34.30;;;19.30;99.90;;;;;;5047196;28;20041;-61
2023/09/23 03:24:30;;;;;;;37.17;34.17;;;19.40;99.90;;;;;;5047100;28;20049;-61
2023/09/23 03:26:59;;;;;;;35.75;32.85;;;19.50;99.90;;;;;;5046867;28;20410;-62
2023/09/23 03:29:28;;;;;;;35.60;32.80;;;19.60;99.90;;;;;;5046898;28;20076;-63
2023/09/23 03:31:58;;;;;;;35.42;32.53;;;20.20;99.90;;;;;;5046703;28;20137;-62
2023/09/23 03:34:24;;;;;;;35.03;32.28;;;19.20;99.90;;;;;;5047052;28;20051;-63
2023/09/23 03:36:53;;;;;;;35.33;32.40;;;19.10;99.90;;;;;;5046974;28;20041;-62
2023/09/23 03:39:19;;;;;;;34.25;31.23;;;19.10;99.90;;;;;;5046970;28;20040;-63
2023/09/23 03:41:46;;;;;;;35.13;32.15;;;18.90;99.90;;;;;;5046708;28;20037;-62
2023/09/23 03:44:16;;;;;;;35.30;32.40;;;19.70;99.90;;;;;;5046836;28;20550;-62
2023/09/23 03:46:50;;;;;;;35.08;32.40;;;18.70;99.90;;;;;;5046479;28;20104;-62
2023/09/23 03:49:17;;;;;;;35.17;32.28;;;19.40;99.90;;;;;;5046723;28;20477;-62
2023/09/23 03:51:43;;;;;;;35.03;32.40;;;19.20;99.90;;;;;;5047967;28;20511;-62
2023/09/23 03:54:09;;;;;;;36.72;33.75;;;19.10;99.90;;;;;;5050515;28;20060;-62
2023/09/23 03:56:35;;;;;;;37.28;34.28;;;18.40;99.90;;;;;;5050581;28;20037;-62
2023/09/23 03:59:01;;;;;;;38.17;34.70;;;19.20;99.90;;;;;;5049477;28;20036;-62
2023/09/23 04:01:27;;;;;;;37.75;34.83;;;19.00;99.90;;;;;;5050425;28;20036;-62
2023/09/23 04:03:53;;;;;;;38.10;35.22;;;18.20;99.90;;;;;;5050643;28;20494;-61
2023/09/23 04:06:19;;;;;;;39.20;36.15;;;18.50;99.90;;;;;;5050305;28;20041;-60
2023/09/23 04:08:45;;;;;;;39.95;36.67;;;18.70;99.90;;;;;;5050232;28;20045;-61
2023/09/23 04:11:15;;;;;;;38.85;35.95;;;19.10;99.90;;;;;;5067473;28;20050;-61
2023/09/23 04:13:44;;;;;;;39.97;36.80;;;18.20;99.90;;;;;;5068388;28;20083;-61
2023/09/23 04:16:11;;;;;;;40.63;37.53;;;18.30;99.90;;;;;;5069835;28;20044;-62
2023/09/23 04:18:37;;;;;;;43.65;40.08;;;19.10;99.90;;;;;;5069914;28;20086;-62
2023/09/23 04:21:03;;;;;;;43.28;39.78;;;19.00;99.90;;;;;;5070243;28;20123;-61
2023/09/23 04:23:29;;;;;;;43.53;40.08;;;19.20;99.90;;;;;;5069845;28;20036;-62
2023/09/23 04:25:56;;;;;;;45.03;41.42;;;19.20;99.90;;;;;;5069582;28;20037;-62
2023/09/23 04:28:22;;;;;;;43.55;40.05;;;18.20;99.90;;;;;;5069752;28;20098;-65
2023/09/23 04:30:55;;;;;;;44.20;40.80;;;18.30;99.90;;;;;;5069676;28;20481;-65
2023/09/23 04:33:21;;;;;;;43.22;39.92;;;19.00;99.90;;;;;;5069689;28;20033;-65
2023/09/23 04:35:51;;;;;;;44.67;40.85;;;19.30;99.90;;;;;;5069531;28;20473;-65
2023/09/23 04:38:17;;;;;;;44.92;40.97;;;19.10;99.90;;;;;;5069878;28;20070;-65
2023/09/23 04:40:43;;;;;;;44.90;41.30;;;18.40;99.90;;;;;;5067919;28;20045;-65
2023/09/23 04:43:12;;;;;;;42.03;38.83;;;19.10;99.90;;;;;;5067436;28;20106;-65
2023/09/23 04:45:38;;;;;;;43.13;39.83;;;19.40;99.90;;;;;;5068491;28;20460;-65
2023/09/23 04:48:06;;;;;;;41.70;38.50;;;18.40;99.90;;;;;;5069008;28;20057;-65
2023/09/23 04:50:31;;;;;;;42.42;39.13;;;19.40;99.90;;;;;;5068120;28;20064;-65
2023/09/23 04:52:57;;;;;;;41.92;38.67;;;19.40;99.90;;;;;;5068167;28;20422;-65
2023/09/23 04:55:23;;;;;;;42.50;38.97;;;18.70;99.90;;;;;;5067865;28;20114;-65
2023/09/23 04:57:48;;;;;;;41.58;38.28;;;18.60;99.90;;;;;;5067039;28;20051;-65
2023/09/23 05:00:18;;;;;;;40.63;37.40;;;19.30;99.90;;;;;;5068877;28;20040;-65
2023/09/23 05:02:49;;;;;;;40.45;37.47;;;19.30;99.90;;;;;;5068344;28;20137;-65
2023/09/23 05:05:16;;;;;;;40.88;37.67;;;18.60;99.90;;;;;;5068767;28;20044;-65
2023/09/23 05:07:41;;;;;;;40.20;36.90;;;19.20;99.90;;;;;;5067302;28;20467;-65
2023/09/23 05:10:07;;;;;;;40.10;37.10;;;18.80;99.90;;;;;;5059143;28;20048;-65
2023/09/23 05:12:33;;;;;;;40.30;36.80;;;19.70;99.90;;;;;;5046971;28;20049;-65
2023/09/23 05:14:59;;;;;;;38.85;35.85;;;18.70;99.90;;;;;;5047907;28;20047;-65
2023/09/23 05:17:27;;;;;;;39.95;36.90;;;19.40;99.90;;;;;;5047661;28;20041;-65
2023/09/23 05:19:53;;;;;;;39.45;36.45;;;19.70;99.90;;;;;;5046846;28;20048;-65
2023/09/23 05:22:19;;;;;;;39.13;35.65;;;18.90;99.90;;;;;;5048313;28;20083;-65
2023/09/23 05:24:48;;;;;;;39.47;36.17;;;18.70;99.90;;;;;;5046545;28;20069;-65
2023/09/23 05:27:17;;;;;;;39.40;36.10;;;20.10;99.90;;;;;;5047874;28;20048;-65
2023/09/23 05:29:44;;;;;;;41.80;38.25;;;19.60;99.90;;;;;;5048049;28;20128;-65
2023/09/23 05:32:10;;;;;;;40.03;36.72;;;19.00;99.90;;;;;;5047732;28;20040;-65
2023/09/23 05:34:39;;;;;;;40.40;36.92;;;20.00;99.90;;;;;;5048054;28;20057;-65
2023/09/23 05:37:06;;;;;;;40.25;36.67;;;20.10;99.90;;;;;;5048216;28;20040;-65
2023/09/23 05:39:34;;;;;;;41.05;37.53;;;20.10;99.90;;;;;;5047911;28;20493;-67
2023/09/23 05:42:03;;;;;;;42.78;39.33;;;19.10;99.90;;;;;;5047832;28;20044;-68
2023/09/23 05:44:29;;;;;;;41.13;37.35;;;19.10;99.90;;;;;;5047946;28;20122;-67
2023/09/23 05:46:54;;;;;;;40.22;37.05;;;19.20;99.90;;;;;;5047436;28;20045;-68
2023/09/23 05:49:20;;;;;;;41.35;37.50;;;20.60;99.90;;;;;;5047104;28;20053;-67
2023/09/23 05:51:46;;;;;;;45.03;41.13;;;20.30;99.90;;;;;;5047884;28;20045;-68
2023/09/23 05:54:12;;;;;;;41.28;37.72;;;20.70;99.90;;;;;;5047194;28;20045;-69
2023/09/23 05:56:38;;;;;;;44.90;40.67;;;20.40;99.90;;;;;;5047068;28;20055;-67
2023/09/23 05:59:05;;;;;;;38.35;35.15;;;21.00;99.90;;;;;;5047529;28;20107;-68
2023/09/23 06:01:31;;;;;;;33.80;30.73;;;20.80;99.90;;;;;;5047348;28;20126;-68
2023/09/23 06:03:58;;;;;;;36.95;33.28;;;20.40;99.90;;;;;;5047354;28;20047;-68
2023/09/23 06:06:23;;;;;;;38.15;34.13;;;19.30;99.90;;;;;;5047201;28;20128;-67
2023/09/23 06:08:50;;;;;;;37.63;33.75;;;19.20;99.90;;;;;;5047057;28;20156;-68
2023/09/23 06:11:16;;;;;;;39.63;35.35;;;19.20;99.90;;;;;;5065751;28;20056;-69
2023/09/23 06:13:41;;;;;;;41.83;34.30;;;19.10;99.90;;;;;;5067121;28;20521;-69
2023/09/23 06:16:07;;;;;;;37.58;33.88;;;20.30;99.90;;;;;;5066854;28;20063;-69
2023/09/23 06:18:33;;;;;;;39.55;35.60;;;20.30;99.90;;;;;;5067021;28;20126;-67
2023/09/23 06:21:00;;;;;;;37.13;33.53;;;19.20;99.90;;;;;;5066844;28;20048;-70
2023/09/23 06:23:26;;;;;;;36.60;33.22;;;19.20;99.90;;;;;;5066956;28;20043;-69
2023/09/23 06:25:57;;;;;;;38.50;34.42;;;19.20;99.90;;;;;;5066931;28;20044;-68
2023/09/23 06:28:23;;;;;;;36.50;32.78;;;19.90;99.90;;;;;;5067470;28;20478;-69
2023/09/23 06:30:49;;;;;;;36.47;33.45;;;19.30;99.90;;;;;;5067009;28;20076;-69
2023/09/23 06:33:14;;;;;;;34.72;31.52;;;19.20;99.90;;;;;;5067146;28;20062;-69
2023/09/23 06:35:40;;;;;;;34.75;31.65;;;19.80;99.90;;;;;;5066846;28;20066;-69
2023/09/23 06:38:06;;;;;;;35.63;32.53;;;19.00;99.90;;;;;;5049724;28;20044;-69
2023/09/23 06:40:31;;;;;;;35.63;32.55;;;19.20;99.90;;;;;;5068020;28;20044;-68
2023/09/23 06:42:57;;;;;;;36.53;33.58;;;19.50;99.90;;;;;;5066654;28;20505;-70
2023/09/23 06:45:22;;;;;;;36.40;33.30;;;19.80;99.90;;;;;;5067513;28;20049;-66
2023/09/23 06:47:51;;;;;;;35.97;32.88;;;19.70;99.90;;;;;;5067736;28;20044;-69
2023/09/23 06:50:17;;;;;;;37.75;34.65;;;19.10;99.90;;;;;;5067567;28;20057;-69
2023/09/23 06:52:43;;;;;;;37.60;34.33;;;19.80;99.90;;;;;;5066282;28;20062;-69
2023/09/23 06:55:09;;;;;;;38.28;34.72;;;19.30;99.90;;;;;;5067436;28;20880;-69
2023/09/23 06:57:37;;;;;;;38.03;34.65;;;20.70;99.90;;;;;;5067493;28;20139;-69
2023/09/23 07:00:06;;;;;;;39.80;35.63;;;19.90;99.90;;;;;;5067504;28;20457;-70
2023/09/23 07:02:32;;;;;;;39.03;35.67;;;20.10;99.90;;;;;;5066007;28;20098;-69
2023/09/23 07:04:57;;;;;;;39.40;35.85;;;20.10;99.90;;;;;;5067250;28;20049;-70
2023/09/23 07:07:23;;;;;;;39.67;36.28;;;20.70;99.90;;;;;;5067295;28;20055;-68
2023/09/23 07:09:48;;;;;;;41.55;37.35;;;19.50;99.90;;;;;;5067050;28;20044;-69
2023/09/23 07:12:14;;;;;;;38.80;35.47;;;20.90;99.90;;;;;;5067342;28;20049;-68
2023/09/23 07:14:40;;;;;;;40.15;36.45;;;20.80;99.90;;;;;;5067270;28;20048;-69
2023/09/23 07:17:06;;;;;;;39.95;36.42;;;21.00;99.90;;;;;;5067214;28;20574;-70
2023/09/23 07:19:33;;;;;;;40.03;36.00;;;21.10;99.90;;;;;;5067607;28;20037;-70
2023/09/23 07:21:59;;;;;;;40.60;37.20;;;20.60;99.90;;;;;;5067540;28;20047;-69
2023/09/23 07:24:26;;;;;;;37.90;34.58;;;20.30;99.90;;;;;;5068012;28;20498;-69
2023/09/23 07:26:55;;;;;;;41.55;38.10;;;21.70;99.90;;;;;;5068808;28;20041;-69
2023/09/23 07:29:20;;;;;;;42.33;38.42;;;21.20;99.90;;;;;;5071216;28;20524;-70
2023/09/23 07:31:46;;;;;;;38.60;35.35;;;20.80;99.90;;;;;;5069729;28;20044;-70
2023/09/23 07:34:12;;;;;;;37.53;33.75;;;20.60;99.90;;;;;;5070845;28;20045;-69
2023/09/23 07:36:37;;;;;;;36.42;33.40;;;22.20;99.90;;;;;;5070614;28;20102;-69
2023/09/23 07:39:03;;;;;;;38.50;35.08;;;22.20;99.90;;;;;;5069558;28;20044;-70
2023/09/23 07:41:29;;;;;;;38.33;34.92;;;21.00;99.90;;;;;;5070612;28;20774;-70
2023/09/23 07:43:54;;;;;;;36.78;33.30;;;21.20;99.90;;;;;;5069291;28;20045;-70
2023/09/23 07:46:20;;;;;;;33.22;30.17;;;21.90;99.90;;;;;;5070506;28;20449;-70
2023/09/23 07:48:46;;;;;;;32.95;30.00;;;22.00;99.90;;;;;;5068934;28;20059;-70
2023/09/23 07:51:12;;;;;;;31.00;28.17;;;21.90;99.90;;;;;;5070492;28;20040;-69
2023/09/23 07:53:38;;;;;;;29.48;26.58;;;21.50;99.90;;;;;;5070520;28;20036;-69
2023/09/23 07:56:04;;;;;;;29.73;26.75;;;22.10;99.90;;;;;;5070392;28;20055;-69
2023/09/23 07:58:29;;;;;;;29.48;26.77;;;21.50;99.90;;;;;;5052443;28;20044;-64
2023/09/23 08:00:55;;;;;;;30.08;27.15;;;23.00;99.90;;;;;;5070314;28;20574;-64
2023/09/23 08:03:20;;;;;;;23.75;21.95;;;22.80;99.90;;;;;;5070682;28;20036;-65
2023/09/23 08:05:46;;;;;;;23.75;21.63;;;23.80;99.90;;;;;;5070487;28;20498;-64
2023/09/23 08:08:12;;;;;;;24.73;22.38;;;24.30;99.90;;;;;;5066892;28;20040;-67
2023/09/23 08:10:37;;;;;;;26.70;24.40;;;23.50;99.90;;;;;;5065085;28;20487;-67
2023/09/23 08:13:03;;;;;;;29.23;26.58;;;23.50;99.90;;;;;;5052160;28;20412;-66
2023/09/23 08:15:28;;;;;;;29.08;26.40;;;23.10;99.90;;;;;;5051380;28;20045;-67
2023/09/23 08:17:54;;;;;;;30.98;28.27;;;23.20;99.90;;;;;;5053726;28;20044;-67
2023/09/23 08:20:22;;;;;;;28.73;26.30;;;22.40;99.90;;;;;;5051178;28;20135;-66
2023/09/23 08:22:48;;;;;;;29.85;27.27;;;22.40;99.90;;;;;;5050507;28;20457;-66
2023/09/23 08:25:15;;;;;;;29.15;26.55;;;23.40;99.90;;;;;;5049959;28;20430;-67
2023/09/23 08:27:41;;;;;;;28.15;25.45;;;23.50;99.90;;;;;;5050839;28;20048;-66
2023/09/23 08:30:10;;;;;;;27.90;25.42;;;23.70;99.90;;;;;;5060366;28;20040;-67
2023/09/23 08:32:45;;;;;;;29.95;27.08;;;23.50;99.90;;;;;;5069860;28;20184;-66
2023/09/23 08:35:11;;;;;;;27.23;24.77;;;23.20;99.90;;;;;;5049991;28;20063;-67
2023/09/23 08:37:37;;;;;;;26.45;23.73;;;23.50;99.90;;;;;;5063082;28;20041;-67
2023/09/23 08:40:09;;;;;;;28.92;26.27;;;23.40;99.90;;;;;;5049542;28;20049;-66
2023/09/23 08:42:34;;;;;;;27.73;25.05;;;23.60;99.90;;;;;;5058507;28;20456;-67
2023/09/23 08:45:00;;;;;;;25.63;23.33;;;23.30;99.90;;;;;;5049788;28;20075;-66
2023/09/23 08:47:26;;;;;;;24.65;22.58;;;24.10;99.90;;;;;;5062390;28;20047;-67
2023/09/23 08:49:52;;;;;;;21.95;19.90;;;24.30;99.90;;;;;;5061100;28;20056;-66
2023/09/23 08:52:19;;;;;;;17.48;15.88;;;24.40;99.90;;;;;;5062094;28;20037;-64
2023/09/23 08:54:50;;;;;;;18.13;16.48;;;25.20;99.90;;;;;;5056952;28;20087;-64
2023/09/23 08:57:16;;;;;;;17.60;16.20;;;25.20;99.90;;;;;;5057468;28;20040;-66
2023/09/23 08:59:43;;;;;;;18.98;17.23;;;25.50;99.90;;;;;;5058961;28;20040;-64
2023/09/23 09:02:10;;;;;;;20.98;19.02;;;25.40;99.90;;;;;;5049079;28;20041;-65
2023/09/23 09:04:36;;;;;;;21.30;19.35;;;25.70;99.90;;;;;;5052108;28;20040;-65
2023/09/23 09:07:02;;;;;;;20.42;18.65;;;25.60;99.90;;;;;;5063153;28;20063;-67
2023/09/23 09:09:27;;;;;;;16.90;15.60;;;25.70;99.90;;;;;;5059077;28;20056;-65
2023/09/23 09:11:54;;;;;;;13.68;12.40;;;25.60;99.90;;;;;;5055054;28;20425;-63
2023/09/23 09:14:22;;;;;;;13.70;12.65;;;25.40;99.90;;;;;;5057806;28;20044;-64
2023/09/23 09:16:48;;;;;;;12.00;11.10;;;25.20;99.90;;;;;;5052035;28;20512;-63
2023/09/23 09:19:15;;;;;;;10.55;9.75;;;24.90;99.90;;;;;;5049280;28;20052;-63
2023/09/23 09:21:43;;;;;;;11.63;10.82;;;25.00;99.90;;;;;;5047608;28;20136;-63
2023/09/23 09:24:09;;;;;;;14.43;10.68;;;25.00;92.80;;;;;;5048944;28;20048;-62
2023/09/23 09:26:41;;;;;;;13.18;12.02;;;25.00;99.90;;;;;;5048674;28;20112;-64
2023/09/23 09:29:06;;;;;;;14.60;13.50;;;24.90;1.00;;;;;;5048798;28;20077;-63
2023/09/23 09:31:33;;;;;;;16.60;15.30;;;24.90;99.90;;;;;;5046999;28;20118;-64
2023/09/23 09:34:11;;;;;;;12.80;11.90;;;25.00;1.00;;;;;;5048930;28;20045;-63
2023/09/23 09:36:39;;;;;;;14.07;12.90;;;25.00;99.90;;;;;;5048640;28;20037;-63
2023/09/23 09:39:08;;;;;;;16.70;15.25;;;25.10;99.90;;;;;;5048814;28;20045;-62
2023/09/23 09:41:42;;;;;;;15.63;14.32;;;25.00;1.00;;;;;;5048584;28;20456;-63
2023/09/23 09:44:08;;;;;;;16.98;15.30;;;24.80;99.90;;;;;;5048667;28;20514;-63
2023/09/23 09:46:35;;;;;;;14.93;13.70;;;24.80;1.00;;;;;;5047202;28;20052;-63
2023/09/23 09:49:02;;;;;;;17.63;16.23;;;25.00;99.90;;;;;;5048370;28;20118;-63
2023/09/23 09:51:30;;;;;;;14.73;13.52;;;24.70;1.00;;;;;;5048736;28;20097;-64
2023/09/23 09:53:56;;;;;;;15.68;14.48;;;24.90;1.00;;;;;;5048497;28;20066;-65
2023/09/23 09:56:23;;;;;;;17.63;16.35;;;25.00;9.20;;;;;;5048297;28;20045;-64
2023/09/23 09:58:49;;;;;;;19.08;17.65;;;25.10;99.90;;;;;;5048252;28;20056;-64
2023/09/23 10:01:14;;;;;;;20.92;19.33;;;25.20;11.10;;;;;;5048360;28;20484;-64
2023/09/23 10:03:42;;;;;;;20.48;18.98;;;25.20;1.00;;;;;;5048420;28;20037;-63
2023/09/23 10:06:08;;;;;;;22.75;20.83;;;25.00;1.00;;;;;;5048322;28;20044;-63
2023/09/23 10:08:38;;;;;;;27.60;25.13;;;24.70;99.90;;;;;;5048315;28;20037;-63
2023/09/23 10:11:08;;;;;;;31.38;28.38;;;24.10;1.00;;;;;;5064641;28;20052;-62
2023/09/23 10:13:34;;;;;;;35.90;32.30;;;23.90;1.00;;;;;;5066689;28;20045;-63
2023/09/23 10:16:06;;;;;;;35.05;31.38;;;23.60;1.00;;;;;;5067703;28;20049;-63
2023/09/23 10:18:37;;;;;;;34.78;31.33;;;23.30;1.00;;;;;;5068097;28;20388;-64
2023/09/23 10:21:03;;;;;;;34.38;30.85;;;23.10;99.90;;;;;;5067773;28;20052;-63
2023/09/23 10:23:35;;;;;;;35.05;30.83;;;23.40;99.90;;;;;;5068226;28;20127;-64
2023/09/23 10:26:18;;;;;;;33.65;30.52;;;23.20;99.90;;;;;;5067791;28;20047;-64
2023/09/23 10:28:57;;;;;;;33.28;29.80;;;23.00;99.90;;;;;;5067814;28;20048;-63
2023/09/23 10:31:27;;;;;;;30.60;27.58;;;22.80;99.90;;;;;;5051839;28;20419;-63
2023/09/23 10:33:53;;;;;;;32.03;29.20;;;22.50;99.90;;;;;;5047573;28;20057;-63
2023/09/23 10:36:20;;;;;;;32.40;29.15;;;22.90;99.90;;;;;;5047393;28;20041;-64
2023/09/23 10:38:46;;;;;;;32.92;29.75;;;22.90;99.90;;;;;;5048001;28;20044;-64
2023/09/23 10:41:12;;;;;;;29.25;26.63;;;23.30;99.90;;;;;;5061216;28;20451;-63
2023/09/23 10:43:37;;;;;;;31.40;28.25;;;23.20;99.90;;;;;;5068047;28;20040;-65
2023/09/23 10:46:05;;;;;;;30.67;27.63;;;23.10;99.90;;;;;;5067704;28;20127;-63
2023/09/23 10:48:31;;;;;;;34.42;30.98;;;22.80;99.90;;;;;;5067531;28;20870;-64
2023/09/23 10:50:57;;;;;;;27.08;24.77;;;23.60;99.90;;;;;;5056264;28;20040;-64
2023/09/23 10:53:25;;;;;;;27.35;24.80;;;23.10;99.90;;;;;;5047829;28;20395;-64
2023/09/23 10:55:51;;;;;;;27.52;25.20;;;23.00;99.90;;;;;;5047618;28;20102;-64
2023/09/23 10:58:17;;;;;;;27.30;25.00;;;22.80;99.90;;;;;;5047798;28;20088;-63
2023/09/23 11:00:43;;;;;;;26.50;24.27;;;22.60;99.90;;;;;;5056346;28;20047;-64
2023/09/23 11:03:14;;;;;;;26.98;24.88;;;22.80;99.90;;;;;;5071161;28;20097;-63
2023/09/23 11:05:43;;;;;;;29.10;26.55;;;23.00;99.90;;;;;;5071298;28;20045;-63
2023/09/23 11:08:10;;;;;;;28.73;26.13;;;22.50;99.90;;;;;;5071633;28;20115;-64
2023/09/23 11:10:44;;;;;;;30.83;28.02;;;23.00;99.90;;;;;;5063140;28;20033;-63
2023/09/23 11:13:11;;;;;;;30.38;27.88;;;22.90;99.90;;;;;;5069626;28;20052;-63
2023/09/23 11:15:41;;;;;;;27.85;25.65;;;23.60;99.90;;;;;;5051043;28;20450;-63
2023/09/23 11:18:07;;;;;;;27.88;25.48;;;22.60;99.90;;;;;;5051084;28;20048;-63
2023/09/23 11:20:34;;;;;;;27.70;25.17;;;22.40;99.90;;;;;;5058359;28;20049;-63
2023/09/23 11:23:03;;;;;;;25.65;23.55;;;22.70;99.90;;;;;;5071472;28;20036;-64
2023/09/23 11:25:30;;;;;;;25.98;23.77;;;22.80;99.90;;;;;;5071209;28;20151;-63
2023/09/23 11:27:59;;;;;;;25.80;23.50;;;23.40;99.90;;;;;;5071558;28;20536;-63
2023/09/23 11:30:25;;;;;;;18.17;16.35;;;23.80;99.90;;;;;;5064887;28;20075;-62
2023/09/23 11:32:52;;;;;;;18.70;17.30;;;23.60;99.90;;;;;;5051284;28;20044;-62
2023/09/23 11:35:18;;;;;;;22.33;20.58;;;23.40;99.90;;;;;;5050936;28;20048;-64
2023/09/23 11:37:48;;;;;;;15.90;14.50;;;23.90;99.90;;;;;;5049839;28;20056;-62
2023/09/23 11:40:14;;;;;;;20.70;18.95;;;23.70;99.90;;;;;;5054626;28;20041;-62
2023/09/23 11:42:40;;;;;;;18.17;16.52;;;24.20;99.90;;;;;;5070883;28;20036;-63
2023/09/23 11:45:07;;;;;;;18.13;16.67;;;24.70;99.90;;;;;;5070620;28;20410;-62
2023/09/23 11:47:33;;;;;;;18.95;17.23;;;24.40;99.90;;;;;;5070722;28;20165;-63
2023/09/23 11:49:58;;;;;;;14.90;13.65;;;24.20;99.90;;;;;;5068646;28;20068;-63
2023/09/23 11:52:24;;;;;;;18.05;16.50;;;24.80;99.90;;;;;;5050743;28;20135;-62
2023/09/23 11:54:50;;;;;;;16.33;15.23;;;25.00;99.90;;;;;;5050371;28;20041;-63
2023/09/23 11:57:16;;;;;;;12.95;11.95;;;24.40;99.90;;;;;;5050370;28;20540;-61
2023/09/23 11:59:42;;;;;;;15.35;13.95;;;24.40;99.90;;;;;;5050436;28;20483;-64
2023/09/23 12:02:08;;;;;;;16.15;14.82;;;24.60;99.90;;;;;;5069176;28;20064;-62
2023/09/23 12:04:34;;;;;;;16.80;15.25;;;24.50;99.90;;;;;;5070349;28;20056;-63
2023/09/23 12:07:00;;;;;;;14.35;13.10;;;24.40;99.90;;;;;;5070163;28;20040;-62
2023/09/23 12:09:26;;;;;;;14.88;13.65;;;24.70;99.90;;;;;;5066891;28;20114;-62
2023/09/23 12:11:51;;;;;;;11.55;10.55;;;24.40;99.90;;;;;;5049734;28;20124;-63
2023/09/23 12:14:19;;;;;;;16.80;15.40;;;24.50;99.90;;;;;;5069626;28;20048;-62
2023/09/23 12:16:45;;;;;;;12.02;11.02;;;24.70;99.90;;;;;;5069822;28;20457;-63
2023/09/23 12:19:11;;;;;;;14.75;13.43;;;24.60;99.90;;;;;;5070535;28;20470;-63
2023/09/23 12:21:37;;;;;;;12.90;11.73;;;24.80;99.90;;;;;;5070488;28;20037;-63
2023/09/23 12:24:03;;;;;;;15.13;13.73;;;25.30;99.90;;;;;;5067857;28;20524;-61
2023/09/23 12:26:31;;;;;;;16.30;14.80;;;24.90;99.90;;;;;;5050022;28;20072;-63